sensor_id;sensor_type;location;lat;lon;timestamp;P1;durP1;ratioP1;P2;durP2;ratioP2
63016;SDS011;50274;45.640;11.756;2023-09-12T00:01:43;13.65;;;10.30;;
63016;SDS011;50274;45.640;11.756;2023-09-12T00:04:08;13.37;;;11.10;;
63016;SDS011;50274;45.640;11.756;2023-09-12T00:06:36;14.65;;;12.20;;
63016;SDS011;50274;45.640;11.756;2023-09-12T00:09:02;13.63;;;10.15;;
63016;SDS011;50274;45.640;11.756;2023-09-12T00:11:30;14.63;;;11.32;;
63016;SDS011;50274;45.640;11.756;2023-09-12T00:13:56;13.97;;;11.70;;
63016;SDS011;50274;45.640;11.756;2023-09-12T00:16:24;14.88;;;11.23;;
63016;SDS011;50274;45.640;11.756;2023-09-12T00:18:50;15.95;;;10.48;;
63016;SDS011;50274;45.640;11.756;2023-09-12T00:21:16;14.97;;;10.10;;
63016;SDS011;50274;45.640;11.756;2023-09-12T00:23:41;13.77;;;9.73;;
63016;SDS011;50274;45.640;11.756;2023-09-12T00:26:07;13.00;;;10.35;;
63016;SDS011;50274;45.640;11.756;2023-09-12T00:28:33;14.90;;;10.13;;
63016;SDS011;50274;45.640;11.756;2023-09-12T00:30:59;16.55;;;10.32;;
63016;SDS011;50274;45.640;11.756;2023-09-12T00:33:25;14.32;;;9.90;;
63016;SDS011;50274;45.640;11.756;2023-09-12T00:35:51;14.30;;;10.37;;
63016;SDS011;50274;45.640;11.756;2023-09-12T00:38:16;12.60;;;9.68;;
63016;SDS011;50274;45.640;11.756;2023-09-12T00:40:42;13.30;;;9.75;;
63016;SDS011;50274;45.640;11.756;2023-09-12T00:43:08;14.47;;;10.00;;
63016;SDS011;50274;45.640;11.756;2023-09-12T00:45:35;14.43;;;10.13;;
63016;SDS011;50274;45.640;11.756;2023-09-12T00:48:01;13.10;;;9.93;;
63016;SDS011;50274;45.640;11.756;2023-09-12T00:50:29;13.73;;;10.30;;
63016;SDS011;50274;45.640;11.756;2023-09-12T00:52:57;12.83;;;9.57;;
63016;SDS011;50274;45.640;11.756;2023-09-12T00:55:24;12.70;;;9.85;;
63016;SDS011;50274;45.640;11.756;2023-09-12T00:57:50;14.15;;;9.57;;
63016;SDS011;50274;45.640;11.756;2023-09-12T01:00:17;13.73;;;10.65;;
63016;SDS011;50274;45.640;11.756;2023-09-12T01:02:43;12.20;;;10.07;;
63016;SDS011;50274;45.640;11.756;2023-09-12T01:05:12;14.35;;;9.73;;
63016;SDS011;50274;45.640;11.756;2023-09-12T01:07:39;13.30;;;9.02;;
63016;SDS011;50274;45.640;11.756;2023-09-12T01:10:06;14.77;;;10.05;;
63016;SDS011;50274;45.640;11.756;2023-09-12T01:12:33;13.57;;;9.83;;
63016;SDS011;50274;45.640;11.756;2023-09-12T01:14:59;13.30;;;10.60;;
63016;SDS011;50274;45.640;11.756;2023-09-12T01:17:25;11.55;;;9.57;;
63016;SDS011;50274;45.640;11.756;2023-09-12T01:19:52;14.05;;;9.70;;
63016;SDS011;50274;45.640;11.756;2023-09-12T01:22:21;13.73;;;9.80;;
63016;SDS011;50274;45.640;11.756;2023-09-12T01:27:58;12.55;;;9.00;;
63016;SDS011;50274;45.640;11.756;2023-09-12T01:30:27;13.73;;;9.45;;
63016;SDS011;50274;45.640;11.756;2023-09-12T01:32:55;11.52;;;9.23;;
63016;SDS011;50274;45.640;11.756;2023-09-12T01:35:22;13.10;;;8.93;;
63016;SDS011;50274;45.640;11.756;2023-09-12T01:37:47;13.60;;;10.18;;
63016;SDS011;50274;45.640;11.756;2023-09-12T01:40:13;12.20;;;9.52;;
63016;SDS011;50274;45.640;11.756;2023-09-12T01:42:41;13.47;;;8.80;;
63016;SDS011;50274;45.640;11.756;2023-09-12T01:45:10;11.57;;;9.68;;
63016;SDS011;50274;45.640;11.756;2023-09-12T01:47:38;13.40;;;9.05;;
63016;SDS011;50274;45.640;11.756;2023-09-12T01:50:05;14.27;;;9.23;;
63016;SDS011;50274;45.640;11.756;2023-09-12T01:52:32;12.25;;;8.95;;
63016;SDS011;50274;45.640;11.756;2023-09-12T01:54:58;11.50;;;8.90;;
63016;SDS011;50274;45.640;11.756;2023-09-12T01:57:24;10.45;;;8.75;;
63016;SDS011;50274;45.640;11.756;2023-09-12T01:59:50;12.65;;;9.48;;
63016;SDS011;50274;45.640;11.756;2023-09-12T02:02:16;12.00;;;9.40;;
63016;SDS011;50274;45.640;11.756;2023-09-12T02:04:50;11.67;;;8.77;;
63016;SDS011;50274;45.640;11.756;2023-09-12T02:07:27;11.18;;;8.63;;
63016;SDS011;50274;45.640;11.756;2023-09-12T02:09:56;10.50;;;8.80;;
63016;SDS011;50274;45.640;11.756;2023-09-12T02:12:22;13.57;;;8.90;;
63016;SDS011;50274;45.640;11.756;2023-09-12T02:14:48;12.80;;;8.87;;
63016;SDS011;50274;45.640;11.756;2023-09-12T02:17:13;13.98;;;9.43;;
63016;SDS011;50274;45.640;11.756;2023-09-12T02:19:39;11.30;;;9.00;;
63016;SDS011;50274;45.640;11.756;2023-09-12T02:22:05;11.73;;;9.30;;
63016;SDS011;50274;45.640;11.756;2023-09-12T02:24:31;13.17;;;8.97;;
63016;SDS011;50274;45.640;11.756;2023-09-12T02:27:00;11.60;;;8.90;;
63016;SDS011;50274;45.640;11.756;2023-09-12T02:29:26;10.52;;;9.00;;
63016;SDS011;50274;45.640;11.756;2023-09-12T02:31:52;12.15;;;8.95;;
63016;SDS011;50274;45.640;11.756;2023-09-12T02:34:18;10.63;;;9.00;;
63016;SDS011;50274;45.640;11.756;2023-09-12T02:36:43;13.07;;;9.07;;
63016;SDS011;50274;45.640;11.756;2023-09-12T02:39:09;11.73;;;9.40;;
63016;SDS011;50274;45.640;11.756;2023-09-12T02:41:35;13.63;;;9.50;;
63016;SDS011;50274;45.640;11.756;2023-09-12T02:44:01;13.70;;;10.18;;
63016;SDS011;50274;45.640;11.756;2023-09-12T02:46:26;13.07;;;9.33;;
63016;SDS011;50274;45.640;11.756;2023-09-12T02:48:52;12.68;;;9.32;;
63016;SDS011;50274;45.640;11.756;2023-09-12T02:51:18;14.13;;;9.53;;
63016;SDS011;50274;45.640;11.756;2023-09-12T02:53:44;13.67;;;9.00;;
63016;SDS011;50274;45.640;11.756;2023-09-12T02:56:09;11.35;;;8.88;;
63016;SDS011;50274;45.640;11.756;2023-09-12T02:58:35;14.27;;;9.13;;
63016;SDS011;50274;45.640;11.756;2023-09-12T03:01:01;13.40;;;9.30;;
63016;SDS011;50274;45.640;11.756;2023-09-12T03:03:28;11.60;;;9.32;;
63016;SDS011;50274;45.640;11.756;2023-09-12T03:06:00;10.80;;;8.50;;
63016;SDS011;50274;45.640;11.756;2023-09-12T03:08:29;13.07;;;9.38;;
63016;SDS011;50274;45.640;11.756;2023-09-12T03:10:55;13.95;;;9.93;;
63016;SDS011;50274;45.640;11.756;2023-09-12T03:13:25;16.70;;;8.73;;
63016;SDS011;50274;45.640;11.756;2023-09-12T03:15:51;12.00;;;9.00;;
63016;SDS011;50274;45.640;11.756;2023-09-12T03:18:17;14.77;;;9.10;;
63016;SDS011;50274;45.640;11.756;2023-09-12T03:20:43;12.93;;;8.82;;
63016;SDS011;50274;45.640;11.756;2023-09-12T03:23:09;10.57;;;8.52;;
63016;SDS011;50274;45.640;11.756;2023-09-12T03:25:36;10.90;;;7.97;;
63016;SDS011;50274;45.640;11.756;2023-09-12T03:28:03;13.38;;;9.18;;
63016;SDS011;50274;45.640;11.756;2023-09-12T03:30:30;11.52;;;8.95;;
63016;SDS011;50274;45.640;11.756;2023-09-12T03:32:58;11.30;;;8.52;;
63016;SDS011;50274;45.640;11.756;2023-09-12T03:35:24;12.27;;;9.27;;
63016;SDS011;50274;45.640;11.756;2023-09-12T03:37:50;12.90;;;9.52;;
63016;SDS011;50274;45.640;11.756;2023-09-12T03:40:16;11.60;;;8.10;;
63016;SDS011;50274;45.640;11.756;2023-09-12T03:42:41;11.13;;;8.07;;
63016;SDS011;50274;45.640;11.756;2023-09-12T03:45:07;13.52;;;9.38;;
63016;SDS011;50274;45.640;11.756;2023-09-12T03:47:34;11.82;;;8.77;;
63016;SDS011;50274;45.640;11.756;2023-09-12T03:50:00;11.63;;;8.13;;
63016;SDS011;50274;45.640;11.756;2023-09-12T03:52:26;13.30;;;9.05;;
63016;SDS011;50274;45.640;11.756;2023-09-12T03:54:51;11.65;;;8.65;;
63016;SDS011;50274;45.640;11.756;2023-09-12T03:57:17;13.77;;;8.77;;
63016;SDS011;50274;45.640;11.756;2023-09-12T03:59:43;16.02;;;8.68;;
63016;SDS011;50274;45.640;11.756;2023-09-12T04:02:11;13.38;;;9.65;;
63016;SDS011;50274;45.640;11.756;2023-09-12T04:04:37;11.38;;;8.10;;
63016;SDS011;50274;45.640;11.756;2023-09-12T04:07:04;11.67;;;8.43;;
63016;SDS011;50274;45.640;11.756;2023-09-12T04:09:30;14.70;;;8.82;;
63016;SDS011;50274;45.640;11.756;2023-09-12T04:11:56;13.90;;;9.15;;
63016;SDS011;50274;45.640;11.756;2023-09-12T04:14:22;12.00;;;8.80;;
63016;SDS011;50274;45.640;11.756;2023-09-12T04:16:47;12.30;;;8.73;;
63016;SDS011;50274;45.640;11.756;2023-09-12T04:19:14;11.40;;;8.70;;
63016;SDS011;50274;45.640;11.756;2023-09-12T04:21:40;11.48;;;9.05;;
63016;SDS011;50274;45.640;11.756;2023-09-12T04:24:06;11.40;;;8.97;;
63016;SDS011;50274;45.640;11.756;2023-09-12T04:26:33;11.10;;;9.03;;
63016;SDS011;50274;45.640;11.756;2023-09-12T04:28:59;12.40;;;9.10;;
63016;SDS011;50274;45.640;11.756;2023-09-12T04:31:24;13.93;;;9.38;;
63016;SDS011;50274;45.640;11.756;2023-09-12T04:33:53;12.18;;;8.98;;
63016;SDS011;50274;45.640;11.756;2023-09-12T04:36:20;13.40;;;9.00;;
63016;SDS011;50274;45.640;11.756;2023-09-12T04:38:46;11.48;;;8.10;;
63016;SDS011;50274;45.640;11.756;2023-09-12T04:41:12;11.40;;;9.13;;
63016;SDS011;50274;45.640;11.756;2023-09-12T04:43:42;11.95;;;8.35;;
63016;SDS011;50274;45.640;11.756;2023-09-12T04:46:10;15.77;;;8.40;;
63016;SDS011;50274;45.640;11.756;2023-09-12T04:48:37;11.88;;;8.63;;
63016;SDS011;50274;45.640;11.756;2023-09-12T04:51:03;12.55;;;8.63;;
63016;SDS011;50274;45.640;11.756;2023-09-12T04:53:29;10.73;;;8.15;;
63016;SDS011;50274;45.640;11.756;2023-09-12T04:56:01;11.93;;;7.82;;
63016;SDS011;50274;45.640;11.756;2023-09-12T04:58:28;11.07;;;8.87;;
63016;SDS011;50274;45.640;11.756;2023-09-12T05:00:56;13.05;;;7.78;;
63016;SDS011;50274;45.640;11.756;2023-09-12T05:03:22;12.85;;;8.00;;
63016;SDS011;50274;45.640;11.756;2023-09-12T05:05:49;15.40;;;9.23;;
63016;SDS011;50274;45.640;11.756;2023-09-12T05:08:16;12.00;;;8.43;;
63016;SDS011;50274;45.640;11.756;2023-09-12T05:10:46;14.20;;;8.40;;
63016;SDS011;50274;45.640;11.756;2023-09-12T05:13:13;11.38;;;8.05;;
63016;SDS011;50274;45.640;11.756;2023-09-12T05:15:40;11.57;;;8.15;;
63016;SDS011;50274;45.640;11.756;2023-09-12T05:18:06;11.23;;;8.45;;
63016;SDS011;50274;45.640;11.756;2023-09-12T05:20:32;10.85;;;7.88;;
63016;SDS011;50274;45.640;11.756;2023-09-12T05:22:59;12.77;;;8.37;;
63016;SDS011;50274;45.640;11.756;2023-09-12T05:25:25;11.07;;;7.72;;
63016;SDS011;50274;45.640;11.756;2023-09-12T05:27:54;10.90;;;7.75;;
63016;SDS011;50274;45.640;11.756;2023-09-12T05:30:20;12.48;;;8.45;;
63016;SDS011;50274;45.640;11.756;2023-09-12T05:32:45;11.60;;;7.23;;
63016;SDS011;50274;45.640;11.756;2023-09-12T05:35:11;12.68;;;8.05;;
63016;SDS011;50274;45.640;11.756;2023-09-12T05:37:37;12.52;;;7.65;;
63016;SDS011;50274;45.640;11.756;2023-09-12T05:40:03;11.27;;;8.07;;
63016;SDS011;50274;45.640;11.756;2023-09-12T05:42:29;11.82;;;7.97;;
63016;SDS011;50274;45.640;11.756;2023-09-12T05:44:55;12.73;;;8.43;;
63016;SDS011;50274;45.640;11.756;2023-09-12T05:47:22;12.82;;;8.18;;
63016;SDS011;50274;45.640;11.756;2023-09-12T05:49:48;11.63;;;7.93;;
63016;SDS011;50274;45.640;11.756;2023-09-12T05:52:14;11.20;;;6.95;;
63016;SDS011;50274;45.640;11.756;2023-09-12T05:54:40;13.57;;;8.10;;
63016;SDS011;50274;45.640;11.756;2023-09-12T05:57:07;12.43;;;8.52;;
63016;SDS011;50274;45.640;11.756;2023-09-12T05:59:36;11.80;;;8.60;;
63016;SDS011;50274;45.640;11.756;2023-09-12T06:02:06;12.25;;;8.52;;
63016;SDS011;50274;45.640;11.756;2023-09-12T06:04:35;14.30;;;8.70;;
63016;SDS011;50274;45.640;11.756;2023-09-12T06:07:02;11.38;;;8.07;;
63016;SDS011;50274;45.640;11.756;2023-09-12T06:09:28;12.20;;;8.98;;
63016;SDS011;50274;45.640;11.756;2023-09-12T06:11:54;13.17;;;8.80;;
63016;SDS011;50274;45.640;11.756;2023-09-12T06:14:20;16.20;;;9.88;;
63016;SDS011;50274;45.640;11.756;2023-09-12T06:16:45;12.50;;;9.13;;
63016;SDS011;50274;45.640;11.756;2023-09-12T06:19:11;13.23;;;9.68;;
63016;SDS011;50274;45.640;11.756;2023-09-12T06:21:39;12.70;;;9.90;;
63016;SDS011;50274;45.640;11.756;2023-09-12T06:24:14;14.57;;;9.98;;
63016;SDS011;50274;45.640;11.756;2023-09-12T06:26:41;18.17;;;10.48;;
63016;SDS011;50274;45.640;11.756;2023-09-12T06:29:07;15.50;;;10.77;;
63016;SDS011;50274;45.640;11.756;2023-09-12T06:31:33;13.60;;;10.10;;
63016;SDS011;50274;45.640;11.756;2023-09-12T06:34:00;16.07;;;11.13;;
63016;SDS011;50274;45.640;11.756;2023-09-12T06:36:27;16.60;;;11.13;;
63016;SDS011;50274;45.640;11.756;2023-09-12T06:38:57;15.80;;;10.85;;
63016;SDS011;50274;45.640;11.756;2023-09-12T06:41:24;16.83;;;11.60;;
63016;SDS011;50274;45.640;11.756;2023-09-12T06:43:50;17.67;;;11.50;;
63016;SDS011;50274;45.640;11.756;2023-09-12T06:46:16;16.17;;;10.87;;
63016;SDS011;50274;45.640;11.756;2023-09-12T06:48:43;17.73;;;12.52;;
63016;SDS011;50274;45.640;11.756;2023-09-12T06:51:10;19.50;;;11.75;;
63016;SDS011;50274;45.640;11.756;2023-09-12T06:53:36;15.60;;;11.75;;
63016;SDS011;50274;45.640;11.756;2023-09-12T06:56:06;16.93;;;10.30;;
63016;SDS011;50274;45.640;11.756;2023-09-12T06:58:31;17.73;;;11.45;;
63016;SDS011;50274;45.640;11.756;2023-09-12T07:01:01;13.15;;;9.70;;
63016;SDS011;50274;45.640;11.756;2023-09-12T07:03:28;17.80;;;10.95;;
63016;SDS011;50274;45.640;11.756;2023-09-12T07:05:54;18.10;;;11.23;;
63016;SDS011;50274;45.640;11.756;2023-09-12T07:08:19;14.85;;;10.57;;
63016;SDS011;50274;45.640;11.756;2023-09-12T07:10:45;19.37;;;10.80;;
63016;SDS011;50274;45.640;11.756;2023-09-12T07:13:11;15.52;;;11.18;;
63016;SDS011;50274;45.640;11.756;2023-09-12T07:15:37;13.65;;;9.70;;
63016;SDS011;50274;45.640;11.756;2023-09-12T07:18:04;14.95;;;10.48;;
63016;SDS011;50274;45.640;11.756;2023-09-12T07:20:32;12.95;;;10.30;;
63016;SDS011;50274;45.640;11.756;2023-09-12T07:22:59;13.87;;;10.17;;
63016;SDS011;50274;45.640;11.756;2023-09-12T07:25:25;11.70;;;9.10;;
63016;SDS011;50274;45.640;11.756;2023-09-12T07:27:51;13.23;;;8.82;;
63016;SDS011;50274;45.640;11.756;2023-09-12T07:30:17;13.77;;;10.73;;
63016;SDS011;50274;45.640;11.756;2023-09-12T07:32:43;12.52;;;10.48;;
63016;SDS011;50274;45.640;11.756;2023-09-12T07:35:09;14.38;;;10.68;;
63016;SDS011;50274;45.640;11.756;2023-09-12T07:37:35;16.52;;;11.32;;
63016;SDS011;50274;45.640;11.756;2023-09-12T07:40:01;14.33;;;9.93;;
63016;SDS011;50274;45.640;11.756;2023-09-12T07:42:34;15.20;;;11.05;;
63016;SDS011;50274;45.640;11.756;2023-09-12T07:45:01;14.82;;;10.20;;
63016;SDS011;50274;45.640;11.756;2023-09-12T07:47:28;17.48;;;9.50;;
63016;SDS011;50274;45.640;11.756;2023-09-12T07:49:54;13.83;;;10.20;;
63016;SDS011;50274;45.640;11.756;2023-09-12T07:52:20;11.63;;;8.50;;
63016;SDS011;50274;45.640;11.756;2023-09-12T07:54:46;17.00;;;10.43;;
63016;SDS011;50274;45.640;11.756;2023-09-12T07:57:14;13.95;;;9.57;;
63016;SDS011;50274;45.640;11.756;2023-09-12T07:59:40;12.90;;;9.47;;
63016;SDS011;50274;45.640;11.756;2023-09-12T08:02:05;14.38;;;10.07;;
63016;SDS011;50274;45.640;11.756;2023-09-12T08:04:31;15.33;;;10.20;;
63016;SDS011;50274;45.640;11.756;2023-09-12T08:06:59;14.05;;;9.73;;
63016;SDS011;50274;45.640;11.756;2023-09-12T08:09:47;14.10;;;10.75;;
63016;SDS011;50274;45.640;11.756;2023-09-12T08:12:18;14.18;;;10.10;;
63016;SDS011;50274;45.640;11.756;2023-09-12T08:14:45;15.18;;;10.55;;
63016;SDS011;50274;45.640;11.756;2023-09-12T08:17:11;16.00;;;11.90;;
63016;SDS011;50274;45.640;11.756;2023-09-12T08:19:37;16.33;;;10.20;;
63016;SDS011;50274;45.640;11.756;2023-09-12T08:22:04;15.68;;;11.13;;
63016;SDS011;50274;45.640;11.756;2023-09-12T08:24:31;15.13;;;10.75;;
63016;SDS011;50274;45.640;11.756;2023-09-12T08:26:56;16.00;;;11.23;;
63016;SDS011;50274;45.640;11.756;2023-09-12T08:29:22;16.05;;;11.48;;
63016;SDS011;50274;45.640;11.756;2023-09-12T08:31:49;16.20;;;11.23;;
63016;SDS011;50274;45.640;11.756;2023-09-12T08:34:15;17.10;;;12.10;;
63016;SDS011;50274;45.640;11.756;2023-09-12T08:36:41;14.75;;;9.60;;
63016;SDS011;50274;45.640;11.756;2023-09-12T08:39:11;14.77;;;10.47;;
63016;SDS011;50274;45.640;11.756;2023-09-12T08:41:39;14.75;;;10.15;;
63016;SDS011;50274;45.640;11.756;2023-09-12T08:44:05;16.05;;;10.07;;
63016;SDS011;50274;45.640;11.756;2023-09-12T08:46:31;17.85;;;11.82;;
63016;SDS011;50274;45.640;11.756;2023-09-12T08:48:57;15.90;;;9.60;;
63016;SDS011;50274;45.640;11.756;2023-09-12T08:51:23;14.73;;;10.27;;
63016;SDS011;50274;45.640;11.756;2023-09-12T08:53:50;13.82;;;9.88;;
63016;SDS011;50274;45.640;11.756;2023-09-12T08:56:16;13.35;;;9.98;;
63016;SDS011;50274;45.640;11.756;2023-09-12T08:58:43;17.23;;;9.67;;
63016;SDS011;50274;45.640;11.756;2023-09-12T09:01:09;12.70;;;9.30;;
63016;SDS011;50274;45.640;11.756;2023-09-12T09:03:41;14.77;;;8.73;;
63016;SDS011;50274;45.640;11.756;2023-09-12T09:06:09;14.30;;;9.27;;
63016;SDS011;50274;45.640;11.756;2023-09-12T09:08:36;11.82;;;8.60;;
63016;SDS011;50274;45.640;11.756;2023-09-12T09:11:03;11.20;;;8.33;;
63016;SDS011;50274;45.640;11.756;2023-09-12T09:13:31;9.93;;;7.80;;
63016;SDS011;50274;45.640;11.756;2023-09-12T09:16:19;12.32;;;8.00;;
63016;SDS011;50274;45.640;11.756;2023-09-12T09:18:56;15.63;;;10.02;;
63016;SDS011;50274;45.640;11.756;2023-09-12T09:21:27;12.07;;;8.73;;
63016;SDS011;50274;45.640;11.756;2023-09-12T09:23:59;12.77;;;8.03;;
63016;SDS011;50274;45.640;11.756;2023-09-12T09:26:41;13.55;;;8.43;;
63016;SDS011;50274;45.640;11.756;2023-09-12T09:29:16;11.48;;;8.90;;
63016;SDS011;50274;45.640;11.756;2023-09-12T09:31:44;11.23;;;7.82;;
63016;SDS011;50274;45.640;11.756;2023-09-12T09:34:15;13.48;;;7.72;;
63016;SDS011;50274;45.640;11.756;2023-09-12T09:36:52;10.97;;;7.63;;
63016;SDS011;50274;45.640;11.756;2023-09-12T09:39:20;14.15;;;7.03;;
63016;SDS011;50274;45.640;11.756;2023-09-12T09:41:57;13.70;;;7.68;;
63016;SDS011;50274;45.640;11.756;2023-09-12T09:44:23;11.52;;;8.10;;
63016;SDS011;50274;45.640;11.756;2023-09-12T09:46:54;12.05;;;7.35;;
63016;SDS011;50274;45.640;11.756;2023-09-12T09:49:22;12.63;;;9.17;;
63016;SDS011;50274;45.640;11.756;2023-09-12T09:51:48;12.18;;;8.20;;
63016;SDS011;50274;45.640;11.756;2023-09-12T09:54:14;17.33;;;9.18;;
63016;SDS011;50274;45.640;11.756;2023-09-12T09:56:54;12.57;;;8.68;;
63016;SDS011;50274;45.640;11.756;2023-09-12T09:59:21;15.80;;;9.00;;
63016;SDS011;50274;45.640;11.756;2023-09-12T10:01:49;14.10;;;9.18;;
63016;SDS011;50274;45.640;11.756;2023-09-12T10:04:20;13.15;;;8.85;;
63016;SDS011;50274;45.640;11.756;2023-09-12T10:06:47;13.88;;;8.57;;
63016;SDS011;50274;45.640;11.756;2023-09-12T10:09:14;13.43;;;8.43;;
63016;SDS011;50274;45.640;11.756;2023-09-12T10:11:46;11.00;;;8.43;;
63016;SDS011;50274;45.640;11.756;2023-09-12T10:14:13;16.30;;;9.65;;
63016;SDS011;50274;45.640;11.756;2023-09-12T10:16:44;13.52;;;9.60;;
63016;SDS011;50274;45.640;11.756;2023-09-12T10:24:53;10.97;;;7.63;;
63016;SDS011;50274;45.640;11.756;2023-09-12T10:27:21;11.63;;;7.57;;
63016;SDS011;50274;45.640;11.756;2023-09-12T10:29:49;13.80;;;8.18;;
63016;SDS011;50274;45.640;11.756;2023-09-12T10:32:18;11.20;;;7.40;;
63016;SDS011;50274;45.640;11.756;2023-09-12T10:34:48;11.30;;;7.28;;
63016;SDS011;50274;45.640;11.756;2023-09-12T10:37:17;11.47;;;7.53;;
63016;SDS011;50274;45.640;11.756;2023-09-12T10:39:47;11.60;;;6.55;;
63016;SDS011;50274;45.640;11.756;2023-09-12T10:42:15;11.02;;;7.07;;
63016;SDS011;50274;45.640;11.756;2023-09-12T10:44:42;8.70;;;6.85;;
63016;SDS011;50274;45.640;11.756;2023-09-12T10:47:10;10.45;;;6.80;;
63016;SDS011;50274;45.640;11.756;2023-09-12T10:49:39;11.70;;;7.20;;
63016;SDS011;50274;45.640;11.756;2023-09-12T10:52:08;16.20;;;7.45;;
63016;SDS011;50274;45.640;11.756;2023-09-12T10:54:38;9.90;;;6.45;;
63016;SDS011;50274;45.640;11.756;2023-09-12T10:57:08;12.13;;;6.88;;
63016;SDS011;50274;45.640;11.756;2023-09-12T11:02:39;8.82;;;6.78;;
63016;SDS011;50274;45.640;11.756;2023-09-12T11:07:57;10.50;;;6.60;;
63016;SDS011;50274;45.640;11.756;2023-09-12T11:10:24;10.20;;;6.90;;
63016;SDS011;50274;45.640;11.756;2023-09-12T11:12:54;12.90;;;7.33;;
63016;SDS011;50274;45.640;11.756;2023-09-12T11:15:23;10.90;;;6.53;;
63016;SDS011;50274;45.640;11.756;2023-09-12T11:18:00;11.00;;;7.20;;
63016;SDS011;50274;45.640;11.756;2023-09-12T11:20:26;11.82;;;7.70;;
63016;SDS011;50274;45.640;11.756;2023-09-12T11:23:18;9.32;;;7.18;;
63016;SDS011;50274;45.640;11.756;2023-09-12T11:25:44;9.27;;;6.63;;
63016;SDS011;50274;45.640;11.756;2023-09-12T11:28:10;10.52;;;7.38;;
63016;SDS011;50274;45.640;11.756;2023-09-12T11:30:36;11.73;;;7.32;;
63016;SDS011;50274;45.640;11.756;2023-09-12T11:33:19;10.48;;;6.80;;
63016;SDS011;50274;45.640;11.756;2023-09-12T11:35:46;11.60;;;7.37;;
63016;SDS011;50274;45.640;11.756;2023-09-12T11:38:25;10.30;;;7.57;;
63016;SDS011;50274;45.640;11.756;2023-09-12T11:40:53;12.02;;;7.18;;
63016;SDS011;50274;45.640;11.756;2023-09-12T11:43:20;9.10;;;6.70;;
63016;SDS011;50274;45.640;11.756;2023-09-12T11:45:47;10.63;;;7.05;;
63016;SDS011;50274;45.640;11.756;2023-09-12T11:48:14;12.57;;;6.70;;
63016;SDS011;50274;45.640;11.756;2023-09-12T11:50:41;9.48;;;7.82;;
63016;SDS011;50274;45.640;11.756;2023-09-12T11:53:11;9.32;;;6.80;;
63016;SDS011;50274;45.640;11.756;2023-09-12T11:55:41;11.63;;;7.07;;
63016;SDS011;50274;45.640;11.756;2023-09-12T11:58:09;10.60;;;7.73;;
63016;SDS011;50274;45.640;11.756;2023-09-12T12:00:36;14.90;;;8.20;;
63016;SDS011;50274;45.640;11.756;2023-09-12T12:03:03;8.85;;;7.13;;
63016;SDS011;50274;45.640;11.756;2023-09-12T12:05:29;11.02;;;7.50;;
63016;SDS011;50274;45.640;11.756;2023-09-12T12:07:56;10.35;;;8.02;;
63016;SDS011;50274;45.640;11.756;2023-09-12T12:10:23;9.80;;;7.27;;
63016;SDS011;50274;45.640;11.756;2023-09-12T12:12:52;10.52;;;8.13;;
63016;SDS011;50274;45.640;11.756;2023-09-12T12:15:19;10.00;;;7.60;;
63016;SDS011;50274;45.640;11.756;2023-09-12T12:17:45;14.52;;;9.18;;
63016;SDS011;50274;45.640;11.756;2023-09-12T12:20:11;11.93;;;7.57;;
63016;SDS011;50274;45.640;11.756;2023-09-12T12:22:37;11.15;;;7.80;;
63016;SDS011;50274;45.640;11.756;2023-09-12T12:25:11;10.40;;;7.00;;
63016;SDS011;50274;45.640;11.756;2023-09-12T12:27:41;12.23;;;8.25;;
63016;SDS011;50274;45.640;11.756;2023-09-12T12:30:10;10.50;;;7.90;;
63016;SDS011;50274;45.640;11.756;2023-09-12T12:32:41;12.60;;;8.03;;
63016;SDS011;50274;45.640;11.756;2023-09-12T12:35:07;10.27;;;8.20;;
63016;SDS011;50274;45.640;11.756;2023-09-12T12:37:35;12.05;;;8.82;;
63016;SDS011;50274;45.640;11.756;2023-09-12T12:40:02;10.40;;;8.73;;
63016;SDS011;50274;45.640;11.756;2023-09-12T12:42:34;14.57;;;8.57;;
63016;SDS011;50274;45.640;11.756;2023-09-12T12:45:01;12.43;;;7.90;;
63016;SDS011;50274;45.640;11.756;2023-09-12T12:47:35;13.75;;;8.10;;
63016;SDS011;50274;45.640;11.756;2023-09-12T12:50:01;12.95;;;7.68;;
63016;SDS011;50274;45.640;11.756;2023-09-12T12:52:27;11.60;;;7.80;;
63016;SDS011;50274;45.640;11.756;2023-09-12T12:54:53;11.23;;;8.00;;
63016;SDS011;50274;45.640;11.756;2023-09-12T12:57:28;12.73;;;8.07;;
63016;SDS011;50274;45.640;11.756;2023-09-12T12:59:53;11.97;;;8.63;;
63016;SDS011;50274;45.640;11.756;2023-09-12T13:02:19;11.32;;;8.60;;
63016;SDS011;50274;45.640;11.756;2023-09-12T13:04:45;14.63;;;8.52;;
63016;SDS011;50274;45.640;11.756;2023-09-12T13:07:11;11.83;;;8.73;;
63016;SDS011;50274;45.640;11.756;2023-09-12T13:09:37;14.07;;;9.15;;
63016;SDS011;50274;45.640;11.756;2023-09-12T13:12:03;14.40;;;10.15;;
63016;SDS011;50274;45.640;11.756;2023-09-12T13:14:30;12.13;;;8.23;;
63016;SDS011;50274;45.640;11.756;2023-09-12T13:16:57;13.32;;;7.32;;
63016;SDS011;50274;45.640;11.756;2023-09-12T13:19:24;11.65;;;8.27;;
63016;SDS011;50274;45.640;11.756;2023-09-12T13:21:53;12.05;;;7.65;;
63016;SDS011;50274;45.640;11.756;2023-09-12T13:24:19;9.45;;;7.68;;
63016;SDS011;50274;45.640;11.756;2023-09-12T13:26:45;14.00;;;9.30;;
63016;SDS011;50274;45.640;11.756;2023-09-12T13:29:11;15.38;;;8.73;;
63016;SDS011;50274;45.640;11.756;2023-09-12T13:31:36;10.63;;;8.25;;
63016;SDS011;50274;45.640;11.756;2023-09-12T13:34:02;20.97;;;10.23;;
63016;SDS011;50274;45.640;11.756;2023-09-12T13:36:28;10.90;;;8.45;;
63016;SDS011;50274;45.640;11.756;2023-09-12T13:38:54;11.77;;;8.73;;
63016;SDS011;50274;45.640;11.756;2023-09-12T13:41:21;12.73;;;8.35;;
63016;SDS011;50274;45.640;11.756;2023-09-12T13:43:48;12.60;;;9.20;;
63016;SDS011;50274;45.640;11.756;2023-09-12T13:46:14;12.98;;;8.73;;
63016;SDS011;50274;45.640;11.756;2023-09-12T13:48:41;13.25;;;8.93;;
63016;SDS011;50274;45.640;11.756;2023-09-12T13:51:07;10.80;;;8.10;;
63016;SDS011;50274;45.640;11.756;2023-09-12T13:53:33;9.93;;;7.93;;
63016;SDS011;50274;45.640;11.756;2023-09-12T13:55:59;12.25;;;8.15;;
63016;SDS011;50274;45.640;11.756;2023-09-12T13:58:26;15.35;;;9.57;;
63016;SDS011;50274;45.640;11.756;2023-09-12T14:00:52;11.00;;;8.13;;
63016;SDS011;50274;45.640;11.756;2023-09-12T14:03:18;13.82;;;8.68;;
63016;SDS011;50274;45.640;11.756;2023-09-12T14:05:45;11.85;;;7.85;;
63016;SDS011;50274;45.640;11.756;2023-09-12T14:08:10;11.40;;;8.50;;
63016;SDS011;50274;45.640;11.756;2023-09-12T14:10:36;13.15;;;8.65;;
63016;SDS011;50274;45.640;11.756;2023-09-12T14:13:02;13.93;;;8.82;;
63016;SDS011;50274;45.640;11.756;2023-09-12T14:15:28;11.20;;;8.67;;
63016;SDS011;50274;45.640;11.756;2023-09-12T14:17:54;14.37;;;8.90;;
63016;SDS011;50274;45.640;11.756;2023-09-12T14:20:19;10.75;;;8.02;;
63016;SDS011;50274;45.640;11.756;2023-09-12T14:22:45;12.93;;;8.53;;
63016;SDS011;50274;45.640;11.756;2023-09-12T14:25:11;15.10;;;8.60;;
63016;SDS011;50274;45.640;11.756;2023-09-12T14:27:40;14.00;;;8.52;;
63016;SDS011;50274;45.640;11.756;2023-09-12T14:30:07;11.40;;;8.43;;
63016;SDS011;50274;45.640;11.756;2023-09-12T14:32:33;10.63;;;7.85;;
63016;SDS011;50274;45.640;11.756;2023-09-12T14:34:59;15.00;;;9.40;;